Aviation Digital Data Service (ADDS)

Output produced by METARs form (0527 UTC 22 November 2017)
found at http://bcaws.aviationweather.gov/adds/metars/
 
METAR text: KMOD 220453Z 00000KT 3SM BR CLR 13/12 A3016 RMK AO2 SLP214 T01330117
Conditions at: KMOD (MODESTO , CA, US) observed 0453 UTC 22 November 2017
Temperature: 13.3°C (56°F)
Dewpoint: 11.7°C (53°F) [RH = 90%]
Pressure (altimeter): 30.16 inches Hg (1021.4 mb)
[Sea-level pressure: 1021.4 mb]
Winds: calm
Visibility: 3 miles (5 km)
Ceiling: at least 12,000 feet AGL
Clouds: sky clear below 12,000 feet AGL
Weather: BR  (mist)